AUA1503 EDLW-EDDP
Flight info
| Callsign | AUA1503 |
|---|---|
| Flight time | N/A |
| Altitude | 23000 |
| Route | NUDGO3Q NUDGO Z858 BERDI T958 KOJEC KOJEC1R |
| Aircraft | A20N/M-SDE2E3FGHIRWXY/LB1 |
Departure
| Time | 2026-04-30 19:10 |
|---|---|
| Airport | Dortmund Airport (EDLW) |
Arrival
| Time | N/A |
|---|---|
| Airport | Leipzig/Halle Airport (EDDP) |
| Time | Latitude | Longitude | Altitude | Speed | Heading |
|---|---|---|---|---|---|
| 2026-04-30 18:51 | 51.51580 | 7.61307 | 424 ft | 0 kts | 149° |
| 2026-04-30 19:02 | 51.51581 | 7.61307 | 432 ft | 1 kts | 149° |
| 2026-04-30 19:03 | 51.51642 | 7.61278 | 422 ft | 5 kts | 193° |
| 2026-04-30 19:03 | 51.51666 | 7.61300 | 415 ft | 0 kts | 237° |
| 2026-04-30 19:05 | 51.51664 | 7.61295 | 415 ft | 0 kts | 236° |
| 2026-04-30 19:06 | 51.51586 | 7.61058 | 421 ft | 22 kts | 247° |
| 2026-04-30 19:06 | 51.51516 | 7.60846 | 417 ft | 23 kts | 241° |
| 2026-04-30 19:06 | 51.51442 | 7.60632 | 427 ft | 0 kts | 241° |
| 2026-04-30 19:07 | 51.51410 | 7.60538 | 420 ft | 19 kts | 241° |
| 2026-04-30 19:07 | 51.51358 | 7.60345 | 428 ft | 18 kts | 277° |
| 2026-04-30 19:08 | 51.51484 | 7.60244 | 420 ft | 1 kts | 57° |
| 2026-04-30 19:08 | 51.51485 | 7.60247 | 417 ft | 0 kts | 57° |
| 2026-04-30 19:10 | 51.51868 | 7.61318 | 414 ft | 121 kts | 60° |
| 2026-04-30 19:10 | 51.52782 | 7.64031 | 1295 ft | 146 kts | 58° |
| 2026-04-30 19:11 | 51.53331 | 7.65429 | 1938 ft | 149 kts | 65° |
| 2026-04-30 19:11 | 51.54398 | 7.68546 | 2839 ft | 175 kts | 67° |
| 2026-04-30 19:11 | 51.55015 | 7.70348 | 3207 ft | 194 kts | 66° |
| 2026-04-30 19:12 | 51.55712 | 7.72337 | 3516 ft | 215 kts | 65° |
| 2026-04-30 19:12 | 51.56258 | 7.74636 | 3874 ft | 223 kts | 88° |
| 2026-04-30 19:12 | 51.56098 | 7.77074 | 4549 ft | 220 kts | 112° |
| 2026-04-30 19:13 | 51.54783 | 7.81595 | 5921 ft | 226 kts | 115° |
| 2026-04-30 19:13 | 51.53424 | 7.86222 | 7239 ft | 233 kts | 115° |
| 2026-04-30 19:13 | 51.52720 | 7.88577 | 7863 ft | 236 kts | 117° |
| 2026-04-30 19:14 | 51.51828 | 7.90809 | 8488 ft | 240 kts | 126° |
| 2026-04-30 19:14 | 51.50714 | 7.92817 | 9111 ft | 244 kts | 132° |
| 2026-04-30 19:14 | 51.49515 | 7.94777 | 9736 ft | 248 kts | 131° |
| 2026-04-30 19:14 | 51.48311 | 7.96774 | 10363 ft | 250 kts | 131° |
| 2026-04-30 19:15 | 51.47070 | 7.98848 | 10656 ft | 268 kts | 131° |
| 2026-04-30 19:15 | 51.44299 | 8.03480 | 11007 ft | 310 kts | 131° |
| 2026-04-30 19:15 | 51.42852 | 8.06148 | 11334 ft | 322 kts | 121° |
| 2026-04-30 19:16 | 51.41917 | 8.09388 | 11974 ft | 322 kts | 104° |
| 2026-04-30 19:16 | 51.41627 | 8.12947 | 12614 ft | 325 kts | 91° |
| 2026-04-30 19:16 | 51.41597 | 8.20249 | 13883 ft | 332 kts | 90° |
| 2026-04-30 19:17 | 51.41569 | 8.23960 | 14498 ft | 334 kts | 90° |
| 2026-04-30 19:17 | 51.41496 | 8.31462 | 15686 ft | 339 kts | 90° |
| 2026-04-30 19:17 | 51.41457 | 8.35250 | 16251 ft | 342 kts | 90° |
| 2026-04-30 19:18 | 51.41402 | 8.40367 | 17006 ft | 345 kts | 90° |
| 2026-04-30 19:18 | 51.41331 | 8.46793 | 17950 ft | 349 kts | 90° |
| 2026-04-30 19:18 | 51.41290 | 8.50696 | 18481 ft | 352 kts | 90° |
| 2026-04-30 19:19 | 51.41247 | 8.54632 | 18994 ft | 354 kts | 90° |
| 2026-04-30 19:19 | 51.41204 | 8.58595 | 19449 ft | 357 kts | 90° |
| 2026-04-30 19:19 | 51.41110 | 8.66609 | 20370 ft | 363 kts | 89° |
| 2026-04-30 19:20 | 51.41059 | 8.70645 | 20816 ft | 366 kts | 89° |
| 2026-04-30 19:20 | 51.41003 | 8.74733 | 21261 ft | 369 kts | 91° |
| 2026-04-30 19:20 | 51.40532 | 8.81498 | 21976 ft | 374 kts | 95° |
| 2026-04-30 19:21 | 51.40198 | 8.85645 | 22420 ft | 377 kts | 95° |
| 2026-04-30 19:21 | 51.39847 | 8.94058 | 23197 ft | 381 kts | 87° |
| 2026-04-30 19:22 | 51.39934 | 9.02544 | 23399 ft | 382 kts | 87° |
| 2026-04-30 19:22 | 51.40035 | 9.15301 | 23413 ft | 382 kts | 88° |
| 2026-04-30 19:23 | 51.40118 | 9.28035 | 23419 ft | 382 kts | 88° |
| 2026-04-30 19:24 | 51.40165 | 9.36486 | 23420 ft | 371 kts | 88° |
| 2026-04-30 19:24 | 51.40186 | 9.40561 | 23401 ft | 364 kts | 88° |
| 2026-04-30 19:24 | 51.40228 | 9.48763 | 23400 ft | 369 kts | 88° |
| 2026-04-30 19:25 | 51.40275 | 9.61077 | 23405 ft | 368 kts | 87° |
| 2026-04-30 19:26 | 51.40296 | 9.69179 | 22839 ft | 362 kts | 87° |
| 2026-04-30 19:26 | 51.40370 | 9.77180 | 22300 ft | 359 kts | 85° |
| 2026-04-30 19:26 | 51.40481 | 9.81179 | 22046 ft | 360 kts | 85° |
| 2026-04-30 19:27 | 51.40705 | 9.89146 | 21537 ft | 356 kts | 85° |
| 2026-04-30 19:27 | 51.40899 | 9.97031 | 21045 ft | 353 kts | 85° |
| 2026-04-30 19:28 | 51.40989 | 10.00951 | 20791 ft | 352 kts | 85° |
| 2026-04-30 19:28 | 51.41163 | 10.08755 | 20299 ft | 349 kts | 86° |
| 2026-04-30 19:29 | 51.41328 | 10.16475 | 19829 ft | 344 kts | 85° |
| 2026-04-30 19:29 | 51.41409 | 10.20292 | 19523 ft | 342 kts | 86° |
| 2026-04-30 19:30 | 51.41407 | 10.31621 | 18139 ft | 336 kts | 88° |
| 2026-04-30 19:30 | 51.41380 | 10.39053 | 17151 ft | 331 kts | 88° |
| 2026-04-30 19:31 | 51.41364 | 10.46382 | 16198 ft | 327 kts | 88° |
| 2026-04-30 19:31 | 51.41356 | 10.50019 | 15735 ft | 325 kts | 88° |
| 2026-04-30 19:31 | 51.41338 | 10.57224 | 14837 ft | 322 kts | 89° |
| 2026-04-30 19:32 | 51.41327 | 10.60797 | 14402 ft | 320 kts | 88° |
| 2026-04-30 19:32 | 51.41314 | 10.64363 | 13919 ft | 319 kts | 88° |
| 2026-04-30 19:32 | 51.41300 | 10.67852 | 13484 ft | 317 kts | 89° |
| 2026-04-30 19:32 | 51.41285 | 10.71364 | 13039 ft | 314 kts | 89° |
| 2026-04-30 19:33 | 51.41269 | 10.74853 | 12607 ft | 312 kts | 89° |
| 2026-04-30 19:33 | 51.41252 | 10.78321 | 12168 ft | 310 kts | 89° |
| 2026-04-30 19:33 | 51.41235 | 10.81765 | 11732 ft | 308 kts | 89° |
| 2026-04-30 19:33 | 51.41217 | 10.85187 | 11289 ft | 306 kts | 89° |
| 2026-04-30 19:34 | 51.41197 | 10.88590 | 10872 ft | 304 kts | 89° |
| 2026-04-30 19:34 | 51.41177 | 10.91942 | 10680 ft | 296 kts | 89° |
| 2026-04-30 19:34 | 51.41135 | 10.98257 | 10474 ft | 271 kts | 89° |
| 2026-04-30 19:35 | 51.41114 | 11.01223 | 10444 ft | 266 kts | 89° |
| 2026-04-30 19:35 | 51.41095 | 11.04218 | 10438 ft | 270 kts | 89° |
| 2026-04-30 19:35 | 51.41074 | 11.07217 | 10438 ft | 269 kts | 89° |
| 2026-04-30 19:35 | 51.41051 | 11.10213 | 10435 ft | 269 kts | 89° |
| 2026-04-30 19:36 | 51.41031 | 11.13191 | 10288 ft | 267 kts | 89° |
| 2026-04-30 19:36 | 51.41007 | 11.16158 | 9961 ft | 266 kts | 89° |
| 2026-04-30 19:36 | 51.40956 | 11.22055 | 9193 ft | 264 kts | 89° |
| 2026-04-30 19:37 | 51.40930 | 11.24986 | 8799 ft | 263 kts | 90° |
| 2026-04-30 19:37 | 51.40904 | 11.27878 | 8607 ft | 256 kts | 90° |
| 2026-04-30 19:37 | 51.40877 | 11.30780 | 8516 ft | 264 kts | 90° |
| 2026-04-30 19:37 | 51.40849 | 11.33709 | 8440 ft | 261 kts | 90° |
| 2026-04-30 19:38 | 51.40820 | 11.36607 | 8439 ft | 261 kts | 90° |
| 2026-04-30 19:38 | 51.40791 | 11.39512 | 8385 ft | 260 kts | 90° |
| 2026-04-30 19:38 | 51.40761 | 11.42402 | 8125 ft | 259 kts | 90° |
| 2026-04-30 19:38 | 51.40731 | 11.45285 | 7783 ft | 259 kts | 90° |
| 2026-04-30 19:39 | 51.40700 | 11.48160 | 7417 ft | 258 kts | 90° |
| 2026-04-30 19:39 | 51.40669 | 11.51028 | 7050 ft | 257 kts | 91° |
| 2026-04-30 19:39 | 51.40638 | 11.53877 | 6685 ft | 256 kts | 91° |
| 2026-04-30 19:39 | 51.40606 | 11.56717 | 6336 ft | 254 kts | 91° |
| 2026-04-30 19:40 | 51.40572 | 11.59536 | 5976 ft | 252 kts | 91° |
| 2026-04-30 19:40 | 51.40539 | 11.62329 | 5641 ft | 250 kts | 91° |
| 2026-04-30 19:40 | 51.40506 | 11.65099 | 5307 ft | 248 kts | 91° |
| 2026-04-30 19:40 | 51.40432 | 11.67826 | 5114 ft | 241 kts | 97° |
| 2026-04-30 19:41 | 51.40127 | 11.70522 | 5024 ft | 250 kts | 101° |
| 2026-04-30 19:41 | 51.39780 | 11.73223 | 4997 ft | 242 kts | 101° |
| 2026-04-30 19:41 | 51.39663 | 11.75817 | 4997 ft | 227 kts | 90° |
| 2026-04-30 19:41 | 51.39700 | 11.78339 | 5003 ft | 228 kts | 89° |
| 2026-04-30 19:42 | 51.39752 | 11.80862 | 4999 ft | 223 kts | 89° |
| 2026-04-30 19:42 | 51.39810 | 11.83370 | 4960 ft | 228 kts | 88° |
| 2026-04-30 19:42 | 51.39847 | 11.85898 | 4751 ft | 226 kts | 92° |
| 2026-04-30 19:42 | 51.39731 | 11.88410 | 4552 ft | 227 kts | 92° |
| 2026-04-30 19:43 | 51.39732 | 11.90907 | 4365 ft | 220 kts | 88° |
| 2026-04-30 19:43 | 51.40189 | 11.93180 | 4223 ft | 221 kts | 60° |
| 2026-04-30 19:43 | 51.41076 | 11.95196 | 4079 ft | 221 kts | 54° |
| 2026-04-30 19:44 | 51.42656 | 11.99381 | 2872 ft | 230 kts | 53° |